createdAt,value
2023-01-17T00:00:44.144Z,95779.53
2023-01-17T00:01:47.295Z,95776.13
2023-01-17T00:02:50.501Z,95783.75
2023-01-17T00:04:10.751Z,95772.44
2023-01-17T00:05:31.127Z,95786.31
2023-01-17T00:06:51.680Z,95780.19
2023-01-17T00:08:11.880Z,95789.69
2023-01-17T00:09:33.594Z,95786.31
2023-01-17T00:10:40.443Z,95790.50
2023-01-17T00:11:42.372Z,95789.53
2023-01-17T00:12:47.740Z,95783.56
2023-01-17T00:13:49.945Z,95784.53
2023-01-17T00:14:54.031Z,95791.63
2023-01-17T00:15:56.858Z,95790.97
2023-01-17T00:17:01.171Z,95786.91
2023-01-17T00:18:03.958Z,95797.72
2023-01-17T00:19:24.541Z,95794.47
2023-01-17T00:20:47.394Z,95794.94
2023-01-17T00:22:07.627Z,95798.66
2023-01-17T00:23:32.206Z,95792.03
2023-01-17T00:24:53.064Z,95793.63
2023-01-17T00:26:04.835Z,95789.44
2023-01-17T00:27:13.115Z,95791.88
2023-01-17T00:28:15.330Z,95797.19
2023-01-17T00:29:17.050Z,95797.97
2023-01-17T00:30:19.361Z,95802.34
2023-01-17T00:31:21.162Z,95795.41
2023-01-17T00:32:24.320Z,95797.69
2023-01-17T00:33:26.432Z,95803.81
2023-01-17T00:34:28.085Z,95803.66
2023-01-17T00:35:31.263Z,95803.47
2023-01-17T00:36:33.174Z,95804.16
2023-01-17T00:37:35.012Z,95801.56
2023-01-17T00:38:38.140Z,95797.06
2023-01-17T00:39:39.922Z,95793.50
2023-01-17T00:40:42.954Z,95798.53
2023-01-17T00:41:44.672Z,95798.38
2023-01-17T00:42:47.547Z,95798.19
2023-01-17T00:44:07.853Z,95795.31
2023-01-17T00:45:28.614Z,95795.31
2023-01-17T00:46:49.273Z,95796.94
2023-01-17T00:48:10.892Z,95801.13
2023-01-17T00:49:31.331Z,95788.22
2023-01-17T00:50:51.957Z,95792.59
2023-01-17T00:52:12.763Z,95791.78
2023-01-17T00:53:33.050Z,95790.97
2023-01-17T00:54:53.368Z,95789.38
2023-01-17T00:56:13.662Z,95793.72
2023-01-17T00:57:33.875Z,95799.81
2023-01-17T00:58:54.433Z,95795.63
2023-01-17T01:00:14.927Z,95798.19
2023-01-17T01:01:35.570Z,95802.72
2023-01-17T01:02:56.676Z,95794.19
2023-01-17T01:04:18.168Z,95797.56
2023-01-17T01:05:38.986Z,95796.75
2023-01-17T01:06:59.193Z,95799.34
2023-01-17T01:08:19.805Z,95797.56
2023-01-17T01:09:40.057Z,95798.53
2023-01-17T01:11:00.439Z,95799.47
2023-01-17T01:12:20.650Z,95804.63
2023-01-17T01:13:43.481Z,95799.63
2023-01-17T01:15:04.003Z,95797.38
2023-01-17T01:16:43.024Z,95805.25
2023-01-17T01:18:03.147Z,95802.84
2023-01-17T01:19:24.638Z,95804.63
2023-01-17T01:20:44.923Z,95803.81
2023-01-17T01:22:04.952Z,95802.03
2023-01-17T01:23:25.135Z,95798.50
2023-01-17T01:24:45.407Z,95796.56
2023-01-17T01:26:06.360Z,95795.63
2023-01-17T01:27:26.577Z,95800.09
2023-01-17T01:28:46.993Z,95798.50
2023-01-17T01:30:07.418Z,95797.53
2023-01-17T01:31:27.825Z,95804.63
2023-01-17T01:32:51.007Z,95791.56
2023-01-17T01:33:54.557Z,95795.75
2023-01-17T01:34:57.701Z,95795.63
2023-01-17T01:36:00.457Z,95798.03
2023-01-17T01:37:02.554Z,95794.47
2023-01-17T01:38:05.324Z,95797.88
2023-01-17T01:39:08.380Z,95789.16
2023-01-17T01:40:11.516Z,95792.41
2023-01-17T01:41:14.416Z,95800.16
2023-01-17T01:42:17.144Z,95807.88
2023-01-17T01:43:22.412Z,95802.72
2023-01-17T01:44:43.876Z,95804.34
2023-01-17T01:45:49.954Z,95798.53
2023-01-17T01:46:51.905Z,95799.47
2023-01-17T01:47:56.443Z,95800.16
2023-01-17T01:49:01.598Z,95804.34
2023-01-17T01:50:08.472Z,95800.78
2023-01-17T01:51:13.375Z,95802.38
2023-01-17T01:52:15.932Z,95798.06
2023-01-17T01:53:19.837Z,95796.94
2023-01-17T01:54:24.507Z,95797.75
2023-01-17T01:55:31.076Z,95795.00
2023-01-17T01:56:33.636Z,95797.56
2023-01-17T01:57:41.444Z,95796.63
2023-01-17T01:58:47.089Z,95789.69
2023-01-17T01:59:53.084Z,95794.06
2023-01-17T02:00:54.889Z,95786.31
2023-01-17T02:01:58.175Z,95780.31
2023-01-17T02:03:04.530Z,95783.88
2023-01-17T02:04:10.000Z,95783.06
2023-01-17T02:05:13.863Z,95786.78
2023-01-17T02:06:27.157Z,95780.81
2023-01-17T02:07:32.823Z,95788.84
2023-01-17T02:08:35.786Z,95782.91
2023-01-17T02:09:37.744Z,95789.16
2023-01-17T02:10:41.809Z,95782.38
2023-01-17T02:11:46.775Z,95779.97
2023-01-17T02:12:49.529Z,95787.22
2023-01-17T02:13:52.315Z,95790.13
2023-01-17T02:14:54.128Z,95787.03
2023-01-17T02:16:02.359Z,95789.25
2023-01-17T02:17:12.518Z,95792.31
2023-01-17T02:18:22.469Z,95795.50
2023-01-17T02:19:38.930Z,95801.28
2023-01-17T02:20:58.867Z,95801.06
2023-01-17T02:22:15.407Z,95806.03
2023-01-17T02:23:48.043Z,95806.94
2023-01-17T02:25:09.647Z,95799.00
2023-01-17T02:26:28.891Z,95804.59
2023-01-17T02:27:40.512Z,95803.16
2023-01-17T02:28:56.125Z,95802.47
2023-01-17T02:30:24.773Z,95808.09
2023-01-17T02:31:28.085Z,95808.69
2023-01-17T02:32:51.585Z,95802.38
2023-01-17T02:33:58.858Z,95806.50
2023-01-17T02:35:03.873Z,95809.53
2023-01-17T02:36:10.567Z,95804.19
2023-01-17T02:37:19.312Z,95815.19
2023-01-17T02:38:31.637Z,95812.06
2023-01-17T02:39:38.545Z,95804.41
2023-01-17T02:40:43.446Z,95806.88
2023-01-17T02:41:48.819Z,95805.88
2023-01-17T02:42:55.289Z,95810.66
2023-01-17T02:43:58.568Z,95810.28
2023-01-17T02:45:02.552Z,95804.91
2023-01-17T02:46:09.575Z,95809.78
2023-01-17T02:47:23.159Z,95809.06
2023-01-17T02:48:29.628Z,95813.16
2023-01-17T02:49:32.145Z,95815.34
2023-01-17T02:50:59.950Z,95812.41
2023-01-17T02:52:13.470Z,95816.50
2023-01-17T02:53:27.868Z,95817.06
2023-01-17T02:54:54.072Z,95816.81
2023-01-17T02:56:25.843Z,95806.56
2023-01-17T02:57:45.401Z,95820.94
2023-01-17T02:59:01.671Z,95818.25
2023-01-17T03:00:09.523Z,95817.88
2023-01-17T03:01:20.990Z,95820.06
2023-01-17T03:02:27.013Z,95818.03
2023-01-17T03:03:33.687Z,95818.44
2023-01-17T03:04:38.868Z,95819.69
2023-01-17T03:05:43.270Z,95820.75
2023-01-17T03:06:49.664Z,95822.13
2023-01-17T03:07:51.725Z,95823.47
2023-01-17T03:08:55.089Z,95819.72
2023-01-17T03:10:00.027Z,95820.13
2023-01-17T03:11:03.178Z,95817.00
2023-01-17T03:12:05.849Z,95817.41
2023-01-17T03:13:09.023Z,95813.53
2023-01-17T03:14:11.108Z,95821.75
2023-01-17T03:15:17.450Z,95820.28
2023-01-17T03:16:23.892Z,95823.25
2023-01-17T03:17:30.963Z,95818.41
2023-01-17T03:18:32.770Z,95823.78
2023-01-17T03:19:54.099Z,95824.84
2023-01-17T03:20:57.219Z,95826.59
2023-01-17T03:21:59.019Z,95826.75
2023-01-17T03:23:02.304Z,95820.81
2023-01-17T03:24:05.525Z,95828.38
2023-01-17T03:25:08.336Z,95828.38
2023-01-17T03:26:11.183Z,95825.81
2023-01-17T03:27:13.347Z,95826.59
2023-01-17T03:28:16.220Z,95829.56
2023-01-17T03:29:18.155Z,95837.00
2023-01-17T03:30:22.898Z,95847.69
2023-01-17T03:31:26.332Z,95844.72
2023-01-17T03:32:29.899Z,95835.66
2023-01-17T03:33:31.711Z,95842.16
2023-01-17T03:34:34.547Z,95846.03
2023-01-17T03:35:36.818Z,95845.38
2023-01-17T03:36:39.866Z,95849.03
2023-01-17T03:37:41.824Z,95851.06
2023-01-17T03:38:44.735Z,95840.41
2023-01-17T03:39:46.505Z,95849.31
2023-01-17T03:40:49.214Z,95850.66
2023-01-17T03:41:51.015Z,95852.66
2023-01-17T03:42:54.559Z,95852.16
2023-01-17T03:43:56.524Z,95855.91
2023-01-17T03:44:59.387Z,95856.97
2023-01-17T03:46:05.447Z,95857.53
2023-01-17T03:47:11.928Z,95855.50
2023-01-17T03:48:14.256Z,95854.31
2023-01-17T03:49:17.170Z,95855.63
2023-01-17T03:50:18.917Z,95844.31
2023-01-17T03:51:23.603Z,95841.34
2023-01-17T03:52:25.392Z,95836.88
2023-01-17T03:53:28.322Z,95851.06
2023-01-17T03:54:30.262Z,95850.91
2023-01-17T03:55:33.085Z,95849.16
2023-01-17T03:56:34.906Z,95843.91
2023-01-17T03:57:38.048Z,95848.91
2023-01-17T03:58:39.840Z,95842.97
2023-01-17T03:59:42.798Z,95842.97
2023-01-17T04:00:45.086Z,95848.19
2023-01-17T04:01:48.121Z,95843.22
2023-01-17T04:02:51.498Z,95844.16
2023-01-17T04:03:55.357Z,95840.78
2023-01-17T04:04:57.171Z,95841.59
2023-01-17T04:06:00.257Z,95840.09
2023-01-17T04:07:22.880Z,95842.16
2023-01-17T04:08:26.810Z,95840.66
2023-01-17T04:09:33.928Z,95845.13
2023-01-17T04:10:35.710Z,95848.91
2023-01-17T04:11:39.545Z,95855.22
2023-01-17T04:12:41.609Z,95864.16
2023-01-17T04:13:44.471Z,95867.66
2023-01-17T04:14:47.059Z,95860.25
2023-01-17T04:15:51.192Z,95863.75
2023-01-17T04:16:53.090Z,95860.34
2023-01-17T04:17:57.639Z,95850.38
2023-01-17T04:18:59.454Z,95855.66
2023-01-17T04:20:02.249Z,95846.44
2023-01-17T04:21:04.549Z,95843.34
2023-01-17T04:22:07.401Z,95845.38
2023-01-17T04:23:09.212Z,95847.38
2023-01-17T04:24:12.044Z,95845.22
2023-01-17T04:25:13.937Z,95852.34
2023-01-17T04:26:16.945Z,95854.63
2023-01-17T04:27:19.036Z,95868.66
2023-01-17T04:28:22.074Z,95856.13
2023-01-17T04:29:23.987Z,95862.06
2023-01-17T04:30:27.975Z,95859.91
2023-01-17T04:31:30.120Z,95853.44
2023-01-17T04:32:32.871Z,95845.06
2023-01-17T04:33:36.544Z,95841.88
2023-01-17T04:34:39.440Z,95840.25
2023-01-17T04:35:41.436Z,95838.09
2023-01-17T04:36:44.734Z,95842.69
2023-01-17T04:37:46.640Z,95838.91
2023-01-17T04:38:49.567Z,95841.84
2023-01-17T04:39:51.573Z,95844.31
2023-01-17T04:40:54.781Z,95852.66
2023-01-17T04:41:56.634Z,95849.97
2023-01-17T04:43:00.824Z,95846.47
2023-01-17T04:44:02.694Z,95846.47
2023-01-17T04:45:06.472Z,95844.81
2023-01-17T04:46:11.020Z,95837.97
2023-01-17T04:47:13.829Z,95834.72
2023-01-17T04:48:15.599Z,95825.53
2023-01-17T04:49:19.895Z,95836.63
2023-01-17T04:50:21.691Z,95834.84
2023-01-17T04:51:24.751Z,95835.81
2023-01-17T04:52:26.972Z,95841.06
2023-01-17T04:53:30.086Z,95842.69
2023-01-17T04:54:32.974Z,95843.50
2023-01-17T04:55:34.976Z,95850.25
2023-01-17T04:56:37.799Z,95849.31
2023-01-17T04:57:42.148Z,95846.72
2023-01-17T04:58:45.332Z,95853.63
2023-01-17T04:59:47.225Z,95852.81
2023-01-17T05:00:51.048Z,95851.06
2023-01-17T05:01:54.245Z,95845.94
2023-01-17T05:02:56.058Z,95852.00
2023-01-17T05:04:00.136Z,95853.63
2023-01-17T05:05:03.708Z,95857.00
2023-01-17T05:06:06.801Z,95860.50
2023-01-17T05:07:08.745Z,95857.25
2023-01-17T05:08:11.575Z,95851.31
2023-01-17T05:09:14.531Z,95860.78
2023-01-17T05:10:17.126Z,95859.16
2023-01-17T05:11:19.917Z,95859.97
2023-01-17T05:12:22.364Z,95857.25
2023-01-17T05:13:25.312Z,95857.13
2023-01-17T05:14:27.168Z,95864.53
2023-01-17T05:15:30.450Z,95866.19
2023-01-17T05:16:32.231Z,95869.41
2023-01-17T05:17:35.456Z,95863.47
2023-01-17T05:18:37.702Z,95871.19
2023-01-17T05:19:40.729Z,95872.13
2023-01-17T05:20:44.379Z,95877.94
2023-01-17T05:21:49.147Z,95876.97
2023-01-17T05:22:55.462Z,95877.66
2023-01-17T05:23:59.190Z,95875.78
2023-01-17T05:25:00.986Z,95874.69
2023-01-17T05:26:03.706Z,95871.84
2023-01-17T05:27:05.492Z,95869.03
2023-01-17T05:28:09.027Z,95874.97
2023-01-17T05:29:11.166Z,95870.50
2023-01-17T05:30:14.565Z,95871.31
2023-01-17T05:31:17.584Z,95868.72
2023-01-17T05:32:23.275Z,95867.81
2023-01-17T05:33:25.187Z,95863.50
2023-01-17T05:34:27.960Z,95861.72
2023-01-17T05:35:32.504Z,95864.41
2023-01-17T05:36:37.654Z,95866.88
2023-01-17T05:37:39.520Z,95861.84
2023-01-17T05:38:44.141Z,95862.78
2023-01-17T05:39:46.754Z,95863.09
2023-01-17T05:40:49.501Z,95862.53
2023-01-17T05:41:52.224Z,95862.13
2023-01-17T05:42:55.737Z,95867.66
2023-01-17T05:43:58.571Z,95863.63
2023-01-17T05:45:00.333Z,95865.34
2023-01-17T05:46:03.163Z,95871.31
2023-01-17T05:47:04.956Z,95857.66
2023-01-17T05:48:07.847Z,95866.06
2023-01-17T05:49:09.965Z,95867.00
2023-01-17T05:50:18.375Z,95862.94
2023-01-17T05:51:21.099Z,95870.78
2023-01-17T05:52:24.348Z,95873.34
2023-01-17T05:53:27.086Z,95873.34
2023-01-17T05:54:28.926Z,95881.69
2023-01-17T05:55:32.561Z,95877.25
2023-01-17T05:56:34.416Z,95868.75
2023-01-17T05:57:37.227Z,95874.00
2023-01-17T05:58:40.424Z,95870.78
2023-01-17T05:59:42.232Z,95863.06
2023-01-17T06:00:45.358Z,95872.38
2023-01-17T06:01:47.433Z,95868.06
2023-01-17T06:02:50.424Z,95865.50
2023-01-17T06:03:52.219Z,95867.81
2023-01-17T06:04:55.658Z,95858.34
2023-01-17T06:05:57.482Z,95859.16
2023-01-17T06:07:00.231Z,95858.22
2023-01-17T06:08:04.583Z,95852.28
2023-01-17T06:09:06.345Z,95863.09
2023-01-17T06:10:14.366Z,95865.66
2023-01-17T06:11:16.244Z,95863.88
2023-01-17T06:12:20.095Z,95867.25
2023-01-17T06:13:23.288Z,95873.19
2023-01-17T06:14:26.133Z,95876.31
2023-01-17T06:15:27.923Z,95885.50
2023-01-17T06:16:31.218Z,95881.84
2023-01-17T06:17:33.034Z,95884.28
2023-01-17T06:18:35.773Z,95887.50
2023-01-17T06:19:37.506Z,95890.75
2023-01-17T06:20:41.227Z,95892.38
2023-01-17T06:21:43.005Z,95893.19
2023-01-17T06:22:45.806Z,95888.75
2023-01-17T06:23:48.966Z,95889.41
2023-01-17T06:24:51.724Z,95885.22
2023-01-17T06:25:54.757Z,95889.41
2023-01-17T06:26:57.149Z,95885.09
2023-01-17T06:27:59.956Z,95883.31
2023-01-17T06:29:01.776Z,95886.56
2023-01-17T06:30:05.297Z,95887.25
2023-01-17T06:31:08.072Z,95886.44
2023-01-17T06:32:10.894Z,95886.28
2023-01-17T06:33:13.144Z,95887.91
2023-01-17T06:34:15.924Z,95886.03
2023-01-17T06:35:17.659Z,95890.22
2023-01-17T06:36:20.536Z,95893.59
2023-01-17T06:37:22.300Z,95886.53
2023-01-17T06:38:25.007Z,95900.19
2023-01-17T06:39:28.193Z,95893.19
2023-01-17T06:40:31.412Z,95892.22
2023-01-17T06:41:33.436Z,95900.75
2023-01-17T06:42:36.334Z,95902.34
2023-01-17T06:43:38.137Z,95900.75
2023-01-17T06:44:40.956Z,95900.59
2023-01-17T06:45:42.867Z,95910.06
2023-01-17T06:46:47.661Z,95907.50
2023-01-17T06:47:49.464Z,95903.31
2023-01-17T06:48:52.342Z,95916.00
2023-01-17T06:49:54.115Z,95908.28
2023-01-17T06:50:58.852Z,95910.75
2023-01-17T06:52:02.244Z,95911.41
2023-01-17T06:53:05.683Z,95908.84
2023-01-17T06:54:10.066Z,95913.16
2023-01-17T06:55:13.509Z,95912.38
2023-01-17T06:56:16.629Z,95907.38
2023-01-17T06:57:18.411Z,95912.63
2023-01-17T06:58:21.184Z,95908.28
2023-01-17T06:59:22.925Z,95907.38
2023-01-17T07:00:26.035Z,95909.13
2023-01-17T07:01:28.068Z,95904.81
2023-01-17T07:02:30.974Z,95910.59
2023-01-17T07:03:33.197Z,95915.59
2023-01-17T07:04:35.969Z,95917.25
2023-01-17T07:05:37.744Z,95923.19
2023-01-17T07:06:40.668Z,95919.66
2023-01-17T07:07:43.544Z,95917.75
2023-01-17T07:08:47.425Z,95916.81
2023-01-17T07:09:49.217Z,95907.22
2023-01-17T07:10:59.190Z,95916.69
2023-01-17T07:12:02.069Z,95923.44
2023-01-17T07:13:03.850Z,95921.81
2023-01-17T07:14:06.642Z,95921.69
2023-01-17T07:15:09.844Z,95918.31
2023-01-17T07:16:12.583Z,95920.47
2023-01-17T07:17:15.418Z,95918.56
2023-01-17T07:18:20.619Z,95919.09
2023-01-17T07:19:23.495Z,95914.50
2023-01-17T07:20:25.425Z,95910.84
2023-01-17T07:21:28.287Z,95913.13
2023-01-17T07:22:30.099Z,95909.47
2023-01-17T07:23:33.229Z,95915.16
2023-01-17T07:24:37.389Z,95920.84
2023-01-17T07:25:40.146Z,95909.44
2023-01-17T07:26:44.299Z,95915.25
2023-01-17T07:27:46.309Z,95914.19
2023-01-17T07:28:49.125Z,95919.16
2023-01-17T07:29:54.069Z,95919.84
2023-01-17T07:30:57.367Z,95921.47
2023-01-17T07:32:00.157Z,95919.56
2023-01-17T07:33:02.198Z,95924.44
2023-01-17T07:34:05.190Z,95918.34
2023-01-17T07:35:07.625Z,95920.75
2023-01-17T07:36:11.430Z,95921.56
2023-01-17T07:37:15.207Z,95920.63
2023-01-17T07:38:19.363Z,95920.50
2023-01-17T07:39:22.769Z,95927.25
2023-01-17T07:40:25.714Z,95924.53
2023-01-17T07:41:28.490Z,95921.03
2023-01-17T07:42:32.678Z,95921.69
2023-01-17T07:43:35.534Z,95919.78
2023-01-17T07:44:41.328Z,95920.59
2023-01-17T07:45:44.042Z,95923.84
2023-01-17T07:46:46.816Z,95930.44
2023-01-17T07:47:49.981Z,95931.13
2023-01-17T07:48:52.842Z,95926.66
2023-01-17T07:49:55.206Z,95933.28
2023-01-17T07:50:59.229Z,95938.13
2023-01-17T07:52:01.898Z,95934.47
2023-01-17T07:53:05.059Z,95934.34
2023-01-17T07:54:07.760Z,95935.94
2023-01-17T07:55:11.216Z,95935.00
2023-01-17T07:56:13.164Z,95940.00
2023-01-17T07:57:15.921Z,95945.81
2023-01-17T07:58:20.218Z,95943.25
2023-01-17T07:59:22.046Z,95949.03
2023-01-17T08:00:26.247Z,95947.16
2023-01-17T08:01:47.767Z,95953.75
2023-01-17T08:02:49.936Z,95947.53
2023-01-17T08:03:54.780Z,95956.88
2023-01-17T08:04:56.569Z,95957.69
2023-01-17T08:05:59.635Z,95952.38
2023-01-17T08:07:02.004Z,95960.09
2023-01-17T08:08:04.985Z,95959.16
2023-01-17T08:09:06.964Z,95960.78
2023-01-17T08:10:17.789Z,95959.03
2023-01-17T08:11:20.571Z,95955.34
2023-01-17T08:12:22.533Z,95958.59
2023-01-17T08:13:28.951Z,95960.88
2023-01-17T08:14:32.484Z,95952.88
2023-01-17T08:15:34.300Z,95961.13
2023-01-17T08:16:38.095Z,95959.06
2023-01-17T08:17:39.892Z,95957.81
2023-01-17T08:18:42.774Z,95966.22
2023-01-17T08:19:44.855Z,95956.44
2023-01-17T08:20:47.637Z,95957.94
2023-01-17T08:21:49.865Z,95963.06
2023-01-17T08:22:56.468Z,95968.22
2023-01-17T08:23:58.234Z,95971.31
2023-01-17T08:25:01.241Z,95965.22
2023-01-17T08:26:04.072Z,95970.06
2023-01-17T08:27:05.901Z,95964.78
2023-01-17T08:28:08.732Z,95968.03
2023-01-17T08:29:13.104Z,95966.91
2023-01-17T08:30:15.099Z,95971.13
2023-01-17T08:31:19.842Z,95965.81
2023-01-17T08:32:22.014Z,95969.22
2023-01-17T08:33:25.005Z,95970.00
2023-01-17T08:34:27.833Z,95971.94
2023-01-17T08:35:29.633Z,95967.75
2023-01-17T08:36:32.520Z,95965.97
2023-01-17T08:37:34.758Z,95972.75
2023-01-17T08:38:38.100Z,95969.38
2023-01-17T08:39:39.879Z,95971.13
2023-01-17T08:40:43.209Z,95970.97
2023-01-17T08:41:46.028Z,95970.81
2023-01-17T08:42:54.404Z,95972.59
2023-01-17T08:43:57.563Z,95968.25
2023-01-17T08:45:00.857Z,95970.81
2023-01-17T08:46:03.630Z,95978.53
2023-01-17T08:47:06.723Z,95975.97
2023-01-17T08:48:09.930Z,95970.53
2023-01-17T08:49:13.475Z,95978.91
2023-01-17T08:50:20.498Z,95977.16
2023-01-17T08:51:24.848Z,95981.38
2023-01-17T08:52:28.067Z,95971.72
2023-01-17T08:53:31.394Z,95976.72
2023-01-17T08:54:34.184Z,95979.97
2023-01-17T08:55:39.953Z,95984.16
2023-01-17T08:56:43.575Z,95985.63
2023-01-17T08:57:45.350Z,95972.47
2023-01-17T08:58:48.149Z,95983.97
2023-01-17T08:59:51.345Z,95987.72
2023-01-17T09:00:55.572Z,95987.13
2023-01-17T09:02:01.224Z,95981.38
2023-01-17T09:03:04.441Z,95980.94
2023-01-17T09:04:06.274Z,95981.31
2023-01-17T09:05:09.426Z,95983.44
2023-01-17T09:06:14.307Z,95987.19
2023-01-17T09:07:17.346Z,95980.63
2023-01-17T09:08:20.084Z,95989.53
2023-01-17T09:09:23.452Z,95995.06
2023-01-17T09:10:25.305Z,95994.13
2023-01-17T09:11:28.063Z,95996.38
2023-01-17T09:12:33.095Z,95988.50
2023-01-17T09:13:35.404Z,95986.44
2023-01-17T09:14:38.764Z,95995.50
2023-01-17T09:15:41.839Z,95990.19
2023-01-17T09:16:46.120Z,95997.63
2023-01-17T09:17:48.975Z,95993.00
2023-01-17T09:18:53.856Z,95989.28
2023-01-17T09:19:56.667Z,95994.00
2023-01-17T09:20:59.980Z,95989.50
2023-01-17T09:22:02.962Z,95991.94
2023-01-17T09:23:04.759Z,95982.44
2023-01-17T09:24:07.882Z,95980.50
2023-01-17T09:25:10.437Z,95982.91
2023-01-17T09:26:19.295Z,95980.34
2023-01-17T09:27:22.065Z,95988.75
2023-01-17T09:28:25.339Z,95985.19
2023-01-17T09:29:27.133Z,95983.59
2023-01-17T09:30:29.938Z,95987.78
2023-01-17T09:31:31.872Z,95985.19
2023-01-17T09:32:36.181Z,95981.81
2023-01-17T09:33:38.049Z,95985.19
2023-01-17T09:34:40.874Z,95984.22
2023-01-17T09:35:42.738Z,95986.81
2023-01-17T09:36:45.763Z,95979.06
2023-01-17T09:37:49.349Z,95989.09
2023-01-17T09:38:57.112Z,95993.94
2023-01-17T09:39:59.868Z,96001.38
2023-01-17T09:41:02.853Z,95993.50
2023-01-17T09:42:18.578Z,95993.03
2023-01-17T09:43:25.535Z,95994.34
2023-01-17T09:44:29.931Z,95993.09
2023-01-17T09:45:34.562Z,95987.47
2023-01-17T09:46:40.988Z,95994.59
2023-01-17T09:47:47.649Z,95996.72
2023-01-17T09:48:59.731Z,95992.72
2023-01-17T09:50:15.402Z,95989.69
2023-01-17T09:51:22.159Z,95991.94
2023-01-17T09:52:26.146Z,95994.84
2023-01-17T09:53:32.549Z,95990.03
2023-01-17T09:54:40.003Z,95994.56
2023-01-17T09:55:44.124Z,95988.81
2023-01-17T09:56:50.604Z,95990.78
2023-01-17T09:58:00.866Z,95996.41
2023-01-17T09:59:12.091Z,95994.34
2023-01-17T10:00:27.473Z,96002.75
2023-01-17T10:01:36.176Z,95996.44
2023-01-17T10:02:49.130Z,95999.53
2023-01-17T10:04:05.999Z,96001.78
2023-01-17T10:05:30.938Z,96003.91
2023-01-17T10:06:44.292Z,96007.78
2023-01-17T10:07:56.129Z,95997.28
2023-01-17T10:09:24.669Z,95997.78
2023-01-17T10:10:34.573Z,96000.38
2023-01-17T10:11:47.053Z,95999.25
2023-01-17T10:12:56.141Z,96002.50
2023-01-17T10:14:07.360Z,95999.56
2023-01-17T10:15:27.996Z,96000.06
2023-01-17T10:16:38.991Z,95999.78
2023-01-17T10:17:50.244Z,96003.00
2023-01-17T10:19:12.523Z,95996.72
2023-01-17T10:20:34.066Z,96007.53
2023-01-17T10:21:49.462Z,95994.13
2023-01-17T10:23:03.823Z,95991.06
2023-01-17T10:24:25.826Z,95991.56
2023-01-17T10:25:44.745Z,95999.16
2023-01-17T10:26:49.910Z,95992.38
2023-01-17T10:27:57.041Z,95999.16
2023-01-17T10:29:02.280Z,95997.53
2023-01-17T10:30:17.312Z,95994.16
2023-01-17T10:31:23.287Z,95994.16
2023-01-17T10:32:29.099Z,95993.34
2023-01-17T10:33:40.772Z,95999.31
2023-01-17T10:34:45.410Z,95994.94
2023-01-17T10:35:56.943Z,95993.00
2023-01-17T10:37:02.006Z,95992.88
2023-01-17T10:38:07.111Z,95989.31
2023-01-17T10:39:16.371Z,95987.34
2023-01-17T10:40:24.225Z,95991.25
2023-01-17T10:41:30.667Z,95988.34
2023-01-17T10:42:42.269Z,95984.59
2023-01-17T10:43:49.289Z,95989.31
2023-01-17T10:44:56.993Z,95992.38
2023-01-17T10:45:58.853Z,95990.91
2023-01-17T10:47:08.449Z,95993.97
2023-01-17T10:48:16.020Z,95990.91
2023-01-17T10:49:23.318Z,95994.63
2023-01-17T10:50:26.478Z,96003.84
2023-01-17T10:51:43.728Z,95994.63
2023-01-17T10:52:52.699Z,96005.13
2023-01-17T10:54:04.110Z,96005.44
2023-01-17T10:55:13.051Z,95998.78
2023-01-17T10:56:17.376Z,96002.50
2023-01-17T10:57:22.240Z,96003.63
2023-01-17T10:58:25.193Z,95999.59
2023-01-17T10:59:30.548Z,96006.81
2023-01-17T11:00:43.794Z,96010.56
2023-01-17T11:01:46.760Z,96006.66
2023-01-17T11:02:50.765Z,95996.78
2023-01-17T11:03:55.303Z,96008.41
2023-01-17T11:05:05.686Z,96004.69
2023-01-17T11:06:15.395Z,96003.75
2023-01-17T11:07:19.824Z,96006.97
2023-01-17T11:08:22.737Z,96007.47
2023-01-17T11:09:40.781Z,96009.88
2023-01-17T11:10:44.986Z,96010.34
2023-01-17T11:11:49.459Z,96014.38
2023-01-17T11:12:52.418Z,96014.06
2023-01-17T11:13:55.008Z,96010.47
2023-01-17T11:15:02.401Z,96017.91
2023-01-17T11:16:08.283Z,96017.75
2023-01-17T11:17:12.234Z,96020.97
2023-01-17T11:18:16.179Z,96019.03
2023-01-17T11:19:26.611Z,96011.41
2023-01-17T11:20:34.435Z,96020.47
2023-01-17T11:21:40.084Z,96027.44
2023-01-17T11:22:44.923Z,96016.91
2023-01-17T11:23:48.527Z,96023.06
2023-01-17T11:24:53.140Z,96023.06
2023-01-17T11:25:58.076Z,96019.50
2023-01-17T11:27:00.106Z,96016.91
2023-01-17T11:28:05.955Z,96021.94
2023-01-17T11:29:15.304Z,96024.34
2023-01-17T11:30:19.974Z,96019.78
2023-01-17T11:31:27.349Z,96019.66
2023-01-17T11:32:32.706Z,96014.72
2023-01-17T11:33:45.046Z,96029.34
2023-01-17T11:35:06.634Z,96011.81
2023-01-17T11:36:17.549Z,96013.59
2023-01-17T11:37:22.787Z,96010.03
2023-01-17T11:38:25.962Z,96004.84
2023-01-17T11:39:28.943Z,96008.72
2023-01-17T11:40:33.616Z,96009.34
2023-01-17T11:41:37.889Z,96009.19
2023-01-17T11:42:39.731Z,96006.44
2023-01-17T11:43:51.651Z,96002.03
2023-01-17T11:44:54.947Z,95996.06
2023-01-17T11:46:06.097Z,95983.59
2023-01-17T11:47:18.902Z,96002.38
2023-01-17T11:48:21.931Z,95992.84
2023-01-17T11:49:26.665Z,96000.44
2023-01-17T11:50:29.153Z,95998.81
2023-01-17T11:51:35.017Z,95995.06
2023-01-17T11:52:39.074Z,95998.94
2023-01-17T11:53:47.007Z,95993.44
2023-01-17T11:54:50.913Z,95991.47
2023-01-17T11:55:55.564Z,95997.94
2023-01-17T11:56:58.578Z,95988.97
2023-01-17T11:58:00.356Z,95996.59
2023-01-17T11:59:17.457Z,95993.84
2023-01-17T12:00:24.385Z,95988.47
2023-01-17T12:01:34.865Z,95982.28
2023-01-17T12:02:52.162Z,95984.56
2023-01-17T12:04:18.266Z,95979.84
2023-01-17T12:05:33.187Z,95982.44
2023-01-17T12:06:56.763Z,95970.28
2023-01-17T12:08:08.345Z,95973.81
2023-01-17T12:09:22.853Z,95970.28
2023-01-17T12:10:30.580Z,95974.47
2023-01-17T12:12:00.289Z,95966.00
2023-01-17T12:13:29.168Z,95970.63
2023-01-17T12:14:37.556Z,95972.94
2023-01-17T12:15:52.007Z,95972.38
2023-01-17T12:17:01.738Z,95965.16
2023-01-17T12:18:18.901Z,95973.31
2023-01-17T12:19:32.334Z,95972.84
2023-01-17T12:20:41.462Z,95960.41
2023-01-17T12:21:50.976Z,95961.75
2023-01-17T12:23:14.150Z,95960.25
2023-01-17T12:24:31.906Z,95960.69
2023-01-17T12:25:49.031Z,95964.38
2023-01-17T12:26:57.813Z,95962.50
2023-01-17T12:28:10.027Z,95971.34
2023-01-17T12:29:44.137Z,95971.81
2023-01-17T12:30:59.232Z,95961.84
2023-01-17T12:32:12.946Z,95956.28
2023-01-17T12:33:20.012Z,95960.69
2023-01-17T12:34:25.721Z,95965.81
2023-01-17T12:35:32.444Z,95967.56
2023-01-17T12:36:41.553Z,95960.78
2023-01-17T12:37:52.666Z,95966.50
2023-01-17T12:39:02.484Z,95965.81
2023-01-17T12:40:14.782Z,95962.16
2023-01-17T12:41:20.931Z,95958.81
2023-01-17T12:42:25.442Z,95969.94
2023-01-17T12:43:32.127Z,95966.41
2023-01-17T12:44:42.645Z,95974.59
2023-01-17T12:45:46.689Z,95963.56
2023-01-17T12:46:51.920Z,95962.94
2023-01-17T12:48:00.044Z,95964.72
2023-01-17T12:49:05.615Z,95957.94
2023-01-17T12:50:19.276Z,95970.72
2023-01-17T12:51:27.714Z,95967.13
2023-01-17T12:52:42.483Z,95965.19
2023-01-17T12:53:52.526Z,95972.78
2023-01-17T12:54:57.905Z,95973.88
2023-01-17T12:56:04.965Z,95985.88
2023-01-17T12:57:13.882Z,95989.78
2023-01-17T12:58:21.322Z,95992.56
2023-01-17T12:59:27.450Z,95992.38
2023-01-17T13:00:32.315Z,95994.28
2023-01-17T13:01:39.635Z,95990.59
2023-01-17T13:02:47.415Z,96001.16